sensor_id;sensor_type;location;lat;lon;timestamp;pressure;altitude;pressure_sealevel;temperature;humidity
7376;BME280;3728;42.266;24.944;2023-01-27T00:01:08;98859.13;;;2.98;100.00
7376;BME280;3728;42.266;24.944;2023-01-27T00:03:36;98852.16;;;2.99;100.00
7376;BME280;3728;42.266;24.944;2023-01-27T00:06:06;98847.66;;;3.14;100.00
7376;BME280;3728;42.266;24.944;2023-01-27T00:08:38;98854.59;;;3.24;100.00
7376;BME280;3728;42.266;24.944;2023-01-27T00:11:05;98852.19;;;3.37;100.00
7376;BME280;3728;42.266;24.944;2023-01-27T00:13:54;98856.31;;;3.43;100.00
7376;BME280;3728;42.266;24.944;2023-01-27T00:16:22;98873.84;;;3.52;100.00
7376;BME280;3728;42.266;24.944;2023-01-27T00:18:49;98863.00;;;3.44;100.00
7376;BME280;3728;42.266;24.944;2023-01-27T00:21:17;98863.91;;;3.64;100.00
7376;BME280;3728;42.266;24.944;2023-01-27T00:24:03;98873.34;;;3.83;100.00
7376;BME280;3728;42.266;24.944;2023-01-27T00:26:49;98874.84;;;3.89;100.00
7376;BME280;3728;42.266;24.944;2023-01-27T00:29:17;98873.53;;;3.92;100.00
7376;BME280;3728;42.266;24.944;2023-01-27T00:31:44;98881.41;;;4.10;100.00
7376;BME280;3728;42.266;24.944;2023-01-27T00:34:31;98877.22;;;4.14;100.00
7376;BME280;3728;42.266;24.944;2023-01-27T00:37:02;98868.88;;;3.89;100.00
7376;BME280;3728;42.266;24.944;2023-01-27T00:39:31;98866.19;;;3.70;100.00
7376;BME280;3728;42.266;24.944;2023-01-27T00:42:00;98860.53;;;3.63;100.00
7376;BME280;3728;42.266;24.944;2023-01-27T00:44:27;98865.63;;;3.78;100.00
7376;BME280;3728;42.266;24.944;2023-01-27T00:46:55;98851.56;;;3.56;100.00
7376;BME280;3728;42.266;24.944;2023-01-27T00:49:23;98846.03;;;3.28;100.00
7376;BME280;3728;42.266;24.944;2023-01-27T00:51:50;98847.72;;;3.04;100.00
7376;BME280;3728;42.266;24.944;2023-01-27T00:54:18;98851.88;;;3.00;100.00
7376;BME280;3728;42.266;24.944;2023-01-27T00:56:46;98858.16;;;2.89;100.00
7376;BME280;3728;42.266;24.944;2023-01-27T00:59:14;98849.81;;;2.97;100.00
7376;BME280;3728;42.266;24.944;2023-01-27T01:01:41;98850.53;;;3.52;100.00
7376;BME280;3728;42.266;24.944;2023-01-27T01:04:10;98834.56;;;3.39;100.00
7376;BME280;3728;42.266;24.944;2023-01-27T01:06:38;98833.56;;;3.35;100.00
7376;BME280;3728;42.266;24.944;2023-01-27T01:09:05;98825.84;;;3.30;100.00
7376;BME280;3728;42.266;24.944;2023-01-27T01:11:33;98808.41;;;3.46;100.00
7376;BME280;3728;42.266;24.944;2023-01-27T01:14:01;98795.44;;;3.12;100.00
7376;BME280;3728;42.266;24.944;2023-01-27T01:16:28;98779.00;;;2.93;100.00
7376;BME280;3728;42.266;24.944;2023-01-27T01:18:57;98761.41;;;2.90;100.00
7376;BME280;3728;42.266;24.944;2023-01-27T01:21:24;98755.22;;;2.91;100.00
7376;BME280;3728;42.266;24.944;2023-01-27T01:23:52;98764.88;;;3.19;100.00
7376;BME280;3728;42.266;24.944;2023-01-27T01:26:20;98781.41;;;3.18;100.00
7376;BME280;3728;42.266;24.944;2023-01-27T01:28:47;98784.97;;;3.27;100.00
7376;BME280;3728;42.266;24.944;2023-01-27T01:31:18;98792.22;;;3.25;100.00
7376;BME280;3728;42.266;24.944;2023-01-27T01:33:47;98820.06;;;3.43;100.00
7376;BME280;3728;42.266;24.944;2023-01-27T01:36:18;98826.59;;;3.70;100.00
7376;BME280;3728;42.266;24.944;2023-01-27T01:38:47;98834.84;;;3.77;100.00
7376;BME280;3728;42.266;24.944;2023-01-27T01:41:17;98833.81;;;3.73;100.00
7376;BME280;3728;42.266;24.944;2023-01-27T01:43:46;98839.16;;;3.53;100.00
7376;BME280;3728;42.266;24.944;2023-01-27T01:46:16;98844.31;;;3.86;100.00
7376;BME280;3728;42.266;24.944;2023-01-27T01:48:53;98836.78;;;3.56;100.00
7376;BME280;3728;42.266;24.944;2023-01-27T01:51:25;98815.47;;;3.35;100.00
7376;BME280;3728;42.266;24.944;2023-01-27T01:59:33;98788.44;;;3.13;100.00
7376;BME280;3728;42.266;24.944;2023-01-27T02:02:08;98773.41;;;3.20;100.00
7376;BME280;3728;42.266;24.944;2023-01-27T02:04:46;98767.16;;;3.21;100.00
7376;BME280;3728;42.266;24.944;2023-01-27T02:07:34;98758.72;;;3.44;100.00
7376;BME280;3728;42.266;24.944;2023-01-27T02:10:17;98761.81;;;3.12;100.00
7376;BME280;3728;42.266;24.944;2023-01-27T02:12:45;98773.16;;;3.16;100.00
7376;BME280;3728;42.266;24.944;2023-01-27T02:15:13;98768.38;;;3.33;100.00
7376;BME280;3728;42.266;24.944;2023-01-27T02:17:41;98762.28;;;3.19;100.00
7376;BME280;3728;42.266;24.944;2023-01-27T02:20:48;98754.34;;;3.39;100.00
7376;BME280;3728;42.266;24.944;2023-01-27T02:28:35;98758.59;;;3.25;100.00
7376;BME280;3728;42.266;24.944;2023-01-27T02:31:03;98747.69;;;3.33;100.00
7376;BME280;3728;42.266;24.944;2023-01-27T02:33:32;98734.09;;;3.46;100.00
7376;BME280;3728;42.266;24.944;2023-01-27T02:38:41;98693.09;;;3.30;100.00
7376;BME280;3728;42.266;24.944;2023-01-27T02:41:22;98715.44;;;3.50;100.00
7376;BME280;3728;42.266;24.944;2023-01-27T02:43:54;98743.56;;;3.61;100.00
7376;BME280;3728;42.266;24.944;2023-01-27T02:46:22;98739.03;;;3.48;100.00
7376;BME280;3728;42.266;24.944;2023-01-27T02:48:50;98738.72;;;3.55;100.00
7376;BME280;3728;42.266;24.944;2023-01-27T02:51:17;98755.09;;;3.45;100.00
7376;BME280;3728;42.266;24.944;2023-01-27T02:53:46;98747.03;;;3.46;100.00
7376;BME280;3728;42.266;24.944;2023-01-27T02:56:13;98732.28;;;3.47;100.00
7376;BME280;3728;42.266;24.944;2023-01-27T02:58:44;98737.06;;;3.35;100.00
7376;BME280;3728;42.266;24.944;2023-01-27T03:01:23;98740.91;;;3.37;100.00
7376;BME280;3728;42.266;24.944;2023-01-27T03:03:51;98745.13;;;3.62;100.00
7376;BME280;3728;42.266;24.944;2023-01-27T03:06:19;98734.25;;;3.31;100.00
7376;BME280;3728;42.266;24.944;2023-01-27T03:08:47;98734.44;;;3.69;100.00
7376;BME280;3728;42.266;24.944;2023-01-27T03:11:15;98737.59;;;3.61;100.00
7376;BME280;3728;42.266;24.944;2023-01-27T03:14:04;98729.56;;;3.33;100.00
7376;BME280;3728;42.266;24.944;2023-01-27T03:16:32;98717.78;;;3.22;100.00
7376;BME280;3728;42.266;24.944;2023-01-27T03:19:18;98709.31;;;3.12;100.00
7376;BME280;3728;42.266;24.944;2023-01-27T03:21:46;98701.50;;;3.17;100.00
7376;BME280;3728;42.266;24.944;2023-01-27T03:24:19;98713.34;;;3.23;100.00
7376;BME280;3728;42.266;24.944;2023-01-27T03:26:48;98720.94;;;3.43;100.00
7376;BME280;3728;42.266;24.944;2023-01-27T03:29:18;98714.72;;;3.73;100.00
7376;BME280;3728;42.266;24.944;2023-01-27T03:32:04;98719.09;;;3.49;100.00
7376;BME280;3728;42.266;24.944;2023-01-27T03:34:32;98730.25;;;3.73;100.00
7376;BME280;3728;42.266;24.944;2023-01-27T03:37:08;98744.34;;;3.62;100.00
7376;BME280;3728;42.266;24.944;2023-01-27T03:39:55;98743.81;;;3.65;100.00
7376;BME280;3728;42.266;24.944;2023-01-27T03:42:41;98732.38;;;3.66;100.00
7376;BME280;3728;42.266;24.944;2023-01-27T03:45:27;98731.72;;;3.84;100.00
7376;BME280;3728;42.266;24.944;2023-01-27T03:48:13;98729.47;;;3.72;100.00
7376;BME280;3728;42.266;24.944;2023-01-27T03:50:43;98725.03;;;3.49;100.00
7376;BME280;3728;42.266;24.944;2023-01-27T03:53:19;98731.38;;;3.33;100.00
7376;BME280;3728;42.266;24.944;2023-01-27T03:55:47;98750.91;;;3.49;100.00
7376;BME280;3728;42.266;24.944;2023-01-27T04:00:51;98753.78;;;3.76;100.00
7376;BME280;3728;42.266;24.944;2023-01-27T04:03:23;98752.09;;;3.90;100.00
7376;BME280;3728;42.266;24.944;2023-01-27T04:06:13;98734.22;;;3.89;100.00
7376;BME280;3728;42.266;24.944;2023-01-27T04:09:06;98730.59;;;3.90;100.00
7376;BME280;3728;42.266;24.944;2023-01-27T04:11:34;98728.88;;;4.04;100.00
7376;BME280;3728;42.266;24.944;2023-01-27T04:14:21;98719.34;;;3.76;100.00
7376;BME280;3728;42.266;24.944;2023-01-27T04:17:16;98705.84;;;3.55;100.00
7376;BME280;3728;42.266;24.944;2023-01-27T04:19:45;98701.25;;;3.47;100.00
7376;BME280;3728;42.266;24.944;2023-01-27T04:22:14;98691.84;;;3.27;100.00
7376;BME280;3728;42.266;24.944;2023-01-27T04:24:42;98681.59;;;3.17;100.00
7376;BME280;3728;42.266;24.944;2023-01-27T04:27:12;98687.38;;;3.04;100.00
7376;BME280;3728;42.266;24.944;2023-01-27T04:29:41;98684.38;;;3.21;100.00
7376;BME280;3728;42.266;24.944;2023-01-27T04:32:11;98696.72;;;3.34;100.00
7376;BME280;3728;42.266;24.944;2023-01-27T04:34:40;98707.66;;;3.55;100.00
7376;BME280;3728;42.266;24.944;2023-01-27T04:37:09;98687.06;;;3.39;100.00
7376;BME280;3728;42.266;24.944;2023-01-27T04:39:37;98679.81;;;3.41;100.00
7376;BME280;3728;42.266;24.944;2023-01-27T04:42:04;98677.22;;;3.41;100.00
7376;BME280;3728;42.266;24.944;2023-01-27T04:44:32;98691.06;;;3.79;100.00
7376;BME280;3728;42.266;24.944;2023-01-27T04:46:59;98691.59;;;3.81;100.00
7376;BME280;3728;42.266;24.944;2023-01-27T04:49:27;98684.03;;;4.08;100.00
7376;BME280;3728;42.266;24.944;2023-01-27T04:51:55;98688.81;;;4.20;100.00
7376;BME280;3728;42.266;24.944;2023-01-27T04:54:22;98686.66;;;3.80;100.00
7376;BME280;3728;42.266;24.944;2023-01-27T04:56:58;98687.69;;;3.84;100.00
7376;BME280;3728;42.266;24.944;2023-01-27T04:59:29;98680.16;;;3.59;100.00
7376;BME280;3728;42.266;24.944;2023-01-27T05:01:59;98682.03;;;3.53;100.00
7376;BME280;3728;42.266;24.944;2023-01-27T05:04:27;98677.56;;;3.59;100.00
7376;BME280;3728;42.266;24.944;2023-01-27T05:06:54;98688.56;;;3.74;100.00
7376;BME280;3728;42.266;24.944;2023-01-27T05:09:22;98679.97;;;4.02;100.00
7376;BME280;3728;42.266;24.944;2023-01-27T05:11:50;98689.16;;;3.90;100.00
7376;BME280;3728;42.266;24.944;2023-01-27T05:14:18;98703.16;;;4.31;100.00
7376;BME280;3728;42.266;24.944;2023-01-27T05:16:45;98712.16;;;4.57;100.00
7376;BME280;3728;42.266;24.944;2023-01-27T05:19:13;98727.44;;;4.59;100.00
7376;BME280;3728;42.266;24.944;2023-01-27T05:21:41;98732.53;;;4.45;100.00
7376;BME280;3728;42.266;24.944;2023-01-27T05:24:09;98726.41;;;4.18;100.00
7376;BME280;3728;42.266;24.944;2023-01-27T05:26:37;98727.94;;;4.19;100.00
7376;BME280;3728;42.266;24.944;2023-01-27T05:29:05;98721.59;;;4.30;100.00
7376;BME280;3728;42.266;24.944;2023-01-27T05:31:32;98715.41;;;4.07;100.00
7376;BME280;3728;42.266;24.944;2023-01-27T05:34:01;98705.41;;;4.19;100.00
7376;BME280;3728;42.266;24.944;2023-01-27T05:36:29;98718.81;;;4.26;100.00
7376;BME280;3728;42.266;24.944;2023-01-27T05:38:58;98714.22;;;4.18;100.00
7376;BME280;3728;42.266;24.944;2023-01-27T05:41:27;98718.13;;;4.15;100.00
7376;BME280;3728;42.266;24.944;2023-01-27T05:44:00;98716.69;;;4.28;100.00
7376;BME280;3728;42.266;24.944;2023-01-27T05:46:29;98718.06;;;4.63;100.00
7376;BME280;3728;42.266;24.944;2023-01-27T05:48:59;98722.50;;;4.39;100.00
7376;BME280;3728;42.266;24.944;2023-01-27T05:51:34;98725.94;;;4.34;100.00
7376;BME280;3728;42.266;24.944;2023-01-27T05:54:03;98737.28;;;4.38;100.00
7376;BME280;3728;42.266;24.944;2023-01-27T05:56:31;98737.47;;;4.47;100.00
7376;BME280;3728;42.266;24.944;2023-01-27T05:58:59;98738.56;;;4.41;100.00
7376;BME280;3728;42.266;24.944;2023-01-27T06:01:29;98727.47;;;4.17;100.00
7376;BME280;3728;42.266;24.944;2023-01-27T06:03:58;98719.56;;;4.03;100.00
7376;BME280;3728;42.266;24.944;2023-01-27T06:06:28;98721.16;;;3.99;100.00
7376;BME280;3728;42.266;24.944;2023-01-27T06:08:56;98707.13;;;3.81;100.00
7376;BME280;3728;42.266;24.944;2023-01-27T06:11:25;98705.72;;;3.89;100.00
7376;BME280;3728;42.266;24.944;2023-01-27T06:13:54;98692.31;;;3.58;100.00
7376;BME280;3728;42.266;24.944;2023-01-27T06:16:22;98697.88;;;3.46;100.00
7376;BME280;3728;42.266;24.944;2023-01-27T06:18:50;98698.41;;;3.49;100.00
7376;BME280;3728;42.266;24.944;2023-01-27T06:21:18;98713.47;;;3.65;100.00
7376;BME280;3728;42.266;24.944;2023-01-27T06:23:46;98717.38;;;3.91;100.00
7376;BME280;3728;42.266;24.944;2023-01-27T06:26:16;98721.16;;;3.99;100.00
7376;BME280;3728;42.266;24.944;2023-01-27T06:28:45;98726.75;;;4.11;100.00
7376;BME280;3728;42.266;24.944;2023-01-27T06:31:17;98725.41;;;3.90;100.00
7376;BME280;3728;42.266;24.944;2023-01-27T06:33:47;98720.78;;;3.87;100.00
7376;BME280;3728;42.266;24.944;2023-01-27T06:36:19;98729.44;;;4.01;100.00
7376;BME280;3728;42.266;24.944;2023-01-27T06:38:48;98736.13;;;4.07;100.00
7376;BME280;3728;42.266;24.944;2023-01-27T06:41:16;98734.34;;;4.26;100.00
7376;BME280;3728;42.266;24.944;2023-01-27T06:43:43;98726.75;;;3.87;100.00
7376;BME280;3728;42.266;24.944;2023-01-27T06:46:11;98725.97;;;4.10;100.00
7376;BME280;3728;42.266;24.944;2023-01-27T06:48:42;98727.22;;;4.13;100.00
7376;BME280;3728;42.266;24.944;2023-01-27T06:51:09;98724.81;;;3.98;100.00
7376;BME280;3728;42.266;24.944;2023-01-27T06:53:37;98728.50;;;3.92;100.00
7376;BME280;3728;42.266;24.944;2023-01-27T06:56:05;98720.69;;;3.97;100.00
7376;BME280;3728;42.266;24.944;2023-01-27T06:58:33;98727.28;;;4.08;100.00
7376;BME280;3728;42.266;24.944;2023-01-27T07:01:03;98728.81;;;4.33;100.00
7376;BME280;3728;42.266;24.944;2023-01-27T07:03:32;98721.50;;;4.16;100.00
7376;BME280;3728;42.266;24.944;2023-01-27T07:06:03;98718.97;;;4.11;100.00
7376;BME280;3728;42.266;24.944;2023-01-27T07:08:31;98720.63;;;4.02;100.00
7376;BME280;3728;42.266;24.944;2023-01-27T07:11:02;98718.28;;;4.00;100.00
7376;BME280;3728;42.266;24.944;2023-01-27T07:13:31;98716.72;;;4.04;100.00
7376;BME280;3728;42.266;24.944;2023-01-27T07:15:58;98718.91;;;4.16;100.00
7376;BME280;3728;42.266;24.944;2023-01-27T07:18:27;98714.75;;;4.15;100.00
7376;BME280;3728;42.266;24.944;2023-01-27T07:20:55;98714.81;;;4.10;100.00
7376;BME280;3728;42.266;24.944;2023-01-27T07:23:22;98708.00;;;4.19;100.00
7376;BME280;3728;42.266;24.944;2023-01-27T07:25:50;98712.72;;;4.36;100.00
7376;BME280;3728;42.266;24.944;2023-01-27T07:28:17;98716.28;;;4.40;100.00
7376;BME280;3728;42.266;24.944;2023-01-27T07:30:45;98733.81;;;4.66;100.00
7376;BME280;3728;42.266;24.944;2023-01-27T07:33:13;98726.09;;;5.17;100.00
7376;BME280;3728;42.266;24.944;2023-01-27T07:35:41;98726.03;;;5.04;100.00
7376;BME280;3728;42.266;24.944;2023-01-27T07:38:09;98731.03;;;4.81;100.00
7376;BME280;3728;42.266;24.944;2023-01-27T07:40:37;98733.31;;;4.46;100.00
7376;BME280;3728;42.266;24.944;2023-01-27T07:43:04;98727.25;;;4.32;100.00
7376;BME280;3728;42.266;24.944;2023-01-27T07:45:33;98734.56;;;4.30;100.00
7376;BME280;3728;42.266;24.944;2023-01-27T07:48:06;98732.22;;;4.70;100.00
7376;BME280;3728;42.266;24.944;2023-01-27T07:50:35;98729.97;;;4.64;100.00
7376;BME280;3728;42.266;24.944;2023-01-27T07:53:04;98725.06;;;4.62;100.00
7376;BME280;3728;42.266;24.944;2023-01-27T07:55:32;98719.44;;;4.37;100.00
7376;BME280;3728;42.266;24.944;2023-01-27T07:58:00;98721.69;;;4.43;100.00
7376;BME280;3728;42.266;24.944;2023-01-27T08:00:29;98715.34;;;4.73;100.00
7376;BME280;3728;42.266;24.944;2023-01-27T08:02:58;98716.31;;;4.58;100.00
7376;BME280;3728;42.266;24.944;2023-01-27T08:05:27;98716.38;;;4.91;100.00
7376;BME280;3728;42.266;24.944;2023-01-27T08:07:57;98715.09;;;4.88;100.00
7376;BME280;3728;42.266;24.944;2023-01-27T08:10:29;98710.97;;;4.87;100.00
7376;BME280;3728;42.266;24.944;2023-01-27T08:12:57;98713.00;;;4.71;100.00
7376;BME280;3728;42.266;24.944;2023-01-27T08:15:25;98707.56;;;4.54;100.00
7376;BME280;3728;42.266;24.944;2023-01-27T08:17:54;98704.88;;;4.59;100.00
7376;BME280;3728;42.266;24.944;2023-01-27T08:20:24;98698.78;;;4.69;100.00
7376;BME280;3728;42.266;24.944;2023-01-27T08:22:53;98685.19;;;4.40;100.00
7376;BME280;3728;42.266;24.944;2023-01-27T08:25:22;98689.19;;;4.69;100.00
7376;BME280;3728;42.266;24.944;2023-01-27T08:27:51;98686.47;;;5.12;100.00
7376;BME280;3728;42.266;24.944;2023-01-27T08:30:20;98693.22;;;5.13;100.00
7376;BME280;3728;42.266;24.944;2023-01-27T08:32:48;98689.88;;;5.26;100.00
7376;BME280;3728;42.266;24.944;2023-01-27T08:35:17;98687.81;;;4.91;100.00
7376;BME280;3728;42.266;24.944;2023-01-27T08:37:46;98684.88;;;5.29;100.00
7376;BME280;3728;42.266;24.944;2023-01-27T08:40:14;98691.97;;;5.24;100.00
7376;BME280;3728;42.266;24.944;2023-01-27T08:42:43;98697.78;;;5.34;100.00
7376;BME280;3728;42.266;24.944;2023-01-27T08:45:11;98690.47;;;5.04;100.00
7376;BME280;3728;42.266;24.944;2023-01-27T08:47:38;98689.53;;;5.14;100.00
7376;BME280;3728;42.266;24.944;2023-01-27T08:50:08;98684.63;;;4.80;100.00
7376;BME280;3728;42.266;24.944;2023-01-27T08:52:37;98680.34;;;4.70;100.00
7376;BME280;3728;42.266;24.944;2023-01-27T08:55:07;98672.22;;;4.77;100.00
7376;BME280;3728;42.266;24.944;2023-01-27T08:57:37;98667.84;;;4.91;100.00
7376;BME280;3728;42.266;24.944;2023-01-27T09:00:09;98663.72;;;4.71;100.00
7376;BME280;3728;42.266;24.944;2023-01-27T09:02:39;98660.03;;;4.77;100.00
7376;BME280;3728;42.266;24.944;2023-01-27T09:05:07;98657.66;;;4.62;100.00
7376;BME280;3728;42.266;24.944;2023-01-27T09:07:35;98658.84;;;4.51;100.00
7376;BME280;3728;42.266;24.944;2023-01-27T09:10:04;98654.34;;;5.08;100.00
7376;BME280;3728;42.266;24.944;2023-01-27T09:12:46;98666.59;;;5.21;100.00
7376;BME280;3728;42.266;24.944;2023-01-27T09:15:13;98660.59;;;5.07;100.00
7376;BME280;3728;42.266;24.944;2023-01-27T09:17:41;98666.69;;;5.16;100.00
7376;BME280;3728;42.266;24.944;2023-01-27T09:20:10;98673.34;;;5.35;100.00
7376;BME280;3728;42.266;24.944;2023-01-27T09:22:39;98672.53;;;5.67;100.00
7376;BME280;3728;42.266;24.944;2023-01-27T09:25:12;98673.00;;;5.56;100.00
7376;BME280;3728;42.266;24.944;2023-01-27T09:27:42;98671.44;;;5.27;100.00
7376;BME280;3728;42.266;24.944;2023-01-27T09:30:11;98672.19;;;5.28;100.00
7376;BME280;3728;42.266;24.944;2023-01-27T09:32:42;98667.19;;;5.18;100.00
7376;BME280;3728;42.266;24.944;2023-01-27T09:35:10;98671.13;;;5.29;100.00
7376;BME280;3728;42.266;24.944;2023-01-27T09:37:46;98666.91;;;5.46;100.00
7376;BME280;3728;42.266;24.944;2023-01-27T09:40:28;98661.94;;;5.36;100.00
7376;BME280;3728;42.266;24.944;2023-01-27T09:46:24;98650.03;;;5.03;100.00
7376;BME280;3728;42.266;24.944;2023-01-27T09:49:29;98637.56;;;5.19;100.00
7376;BME280;3728;42.266;24.944;2023-01-27T10:00:58;98619.06;;;5.07;100.00
7376;BME280;3728;42.266;24.944;2023-01-27T10:10:07;98601.84;;;4.97;100.00
7376;BME280;3728;42.266;24.944;2023-01-27T10:16:03;98623.00;;;5.50;100.00
7376;BME280;3728;42.266;24.944;2023-01-27T10:21:52;98623.38;;;5.57;100.00
7376;BME280;3728;42.266;24.944;2023-01-27T10:27:57;98621.06;;;5.69;100.00
7376;BME280;3728;42.266;24.944;2023-01-27T10:30:43;98605.69;;;5.32;100.00
7376;BME280;3728;42.266;24.944;2023-01-27T10:36:29;98587.59;;;5.13;100.00
7376;BME280;3728;42.266;24.944;2023-01-27T10:50:26;98576.66;;;5.30;100.00
7376;BME280;3728;42.266;24.944;2023-01-27T10:53:05;98577.00;;;5.64;100.00
7376;BME280;3728;42.266;24.944;2023-01-27T10:55:48;98574.22;;;5.61;100.00
7376;BME280;3728;42.266;24.944;2023-01-27T10:59:02;98575.00;;;5.88;100.00
7376;BME280;3728;42.266;24.944;2023-01-27T11:01:59;98566.03;;;5.81;100.00
7376;BME280;3728;42.266;24.944;2023-01-27T11:04:56;98567.94;;;5.75;100.00
7376;BME280;3728;42.266;24.944;2023-01-27T11:07:32;98554.22;;;5.61;100.00
7376;BME280;3728;42.266;24.944;2023-01-27T11:10:17;98554.03;;;5.71;100.00
7376;BME280;3728;42.266;24.944;2023-01-27T11:12:51;98557.19;;;5.68;100.00
7376;BME280;3728;42.266;24.944;2023-01-27T11:15:33;98555.25;;;5.87;100.00
7376;BME280;3728;42.266;24.944;2023-01-27T11:18:29;98543.38;;;5.45;100.00
7376;BME280;3728;42.266;24.944;2023-01-27T11:21:03;98543.06;;;5.47;100.00
7376;BME280;3728;42.266;24.944;2023-01-27T11:23:41;98543.22;;;5.91;100.00
7376;BME280;3728;42.266;24.944;2023-01-27T11:26:29;98541.56;;;5.82;100.00
7376;BME280;3728;42.266;24.944;2023-01-27T11:29:32;98534.88;;;6.16;100.00
7376;BME280;3728;42.266;24.944;2023-01-27T11:35:03;98545.66;;;5.88;100.00
7376;BME280;3728;42.266;24.944;2023-01-27T11:37:50;98539.56;;;5.92;100.00
7376;BME280;3728;42.266;24.944;2023-01-27T11:40:34;98539.09;;;5.90;100.00
7376;BME280;3728;42.266;24.944;2023-01-27T11:43:04;98527.47;;;5.74;100.00
7376;BME280;3728;42.266;24.944;2023-01-27T11:45:35;98531.56;;;5.89;100.00
7376;BME280;3728;42.266;24.944;2023-01-27T11:48:12;98531.09;;;6.00;100.00
7376;BME280;3728;42.266;24.944;2023-01-27T11:50:43;98515.72;;;6.12;100.00
7376;BME280;3728;42.266;24.944;2023-01-27T11:53:28;98525.19;;;6.53;100.00
7376;BME280;3728;42.266;24.944;2023-01-27T11:56:08;98528.25;;;6.55;100.00
7376;BME280;3728;42.266;24.944;2023-01-27T11:58:49;98532.41;;;6.56;100.00
7376;BME280;3728;42.266;24.944;2023-01-27T12:07:53;98544.16;;;7.06;100.00
7376;BME280;3728;42.266;24.944;2023-01-27T12:10:34;98551.94;;;6.75;100.00
7376;BME280;3728;42.266;24.944;2023-01-27T12:13:15;98545.38;;;6.78;100.00
7376;BME280;3728;42.266;24.944;2023-01-27T12:15:53;98543.47;;;6.61;100.00
7376;BME280;3728;42.266;24.944;2023-01-27T12:18:31;98533.59;;;6.28;100.00
7376;BME280;3728;42.266;24.944;2023-01-27T12:21:05;98528.91;;;6.60;100.00
7376;BME280;3728;42.266;24.944;2023-01-27T12:23:39;98528.59;;;6.93;100.00
7376;BME280;3728;42.266;24.944;2023-01-27T12:26:36;98525.25;;;6.92;100.00
7376;BME280;3728;42.266;24.944;2023-01-27T12:29:11;98513.16;;;6.96;100.00
7376;BME280;3728;42.266;24.944;2023-01-27T12:31:47;98503.00;;;6.86;100.00
7376;BME280;3728;42.266;24.944;2023-01-27T12:34:42;98514.00;;;6.83;100.00
7376;BME280;3728;42.266;24.944;2023-01-27T12:37:21;98514.97;;;7.26;100.00
7376;BME280;3728;42.266;24.944;2023-01-27T12:40:05;98511.03;;;6.98;100.00
7376;BME280;3728;42.266;24.944;2023-01-27T12:42:47;98506.56;;;6.90;100.00
7376;BME280;3728;42.266;24.944;2023-01-27T12:45:33;98508.34;;;6.81;100.00
7376;BME280;3728;42.266;24.944;2023-01-27T12:53:25;98499.84;;;6.67;100.00
7376;BME280;3728;42.266;24.944;2023-01-27T12:55:57;98496.03;;;6.64;100.00
7376;BME280;3728;42.266;24.944;2023-01-27T13:01:27;98498.28;;;6.88;100.00
7376;BME280;3728;42.266;24.944;2023-01-27T13:04:21;98502.13;;;6.90;100.00
7376;BME280;3728;42.266;24.944;2023-01-27T13:09:38;98498.81;;;7.07;100.00
7376;BME280;3728;42.266;24.944;2023-01-27T13:12:22;98493.59;;;7.07;100.00
7376;BME280;3728;42.266;24.944;2023-01-27T13:15:04;98491.38;;;6.83;100.00
7376;BME280;3728;42.266;24.944;2023-01-27T13:17:46;98491.44;;;7.01;100.00
7376;BME280;3728;42.266;24.944;2023-01-27T13:25:36;98481.16;;;6.87;100.00
7376;BME280;3728;42.266;24.944;2023-01-27T13:28:24;98487.38;;;7.17;100.00
7376;BME280;3728;42.266;24.944;2023-01-27T13:31:28;98482.78;;;6.83;100.00
7376;BME280;3728;42.266;24.944;2023-01-27T13:34:36;98491.56;;;6.96;100.00
7376;BME280;3728;42.266;24.944;2023-01-27T13:37:11;98497.53;;;6.87;100.00
7376;BME280;3728;42.266;24.944;2023-01-27T13:43:06;98504.88;;;7.42;100.00
7376;BME280;3728;42.266;24.944;2023-01-27T13:45:43;98510.97;;;7.20;100.00
7376;BME280;3728;42.266;24.944;2023-01-27T13:51:12;98488.75;;;6.75;100.00
7376;BME280;3728;42.266;24.944;2023-01-27T13:53:42;98500.53;;;6.81;100.00
7376;BME280;3728;42.266;24.944;2023-01-27T14:10:26;98512.91;;;7.06;100.00
7376;BME280;3728;42.266;24.944;2023-01-27T14:16:17;98516.47;;;7.19;100.00
7376;BME280;3728;42.266;24.944;2023-01-27T14:19:00;98524.19;;;7.41;100.00
7376;BME280;3728;42.266;24.944;2023-01-27T14:21:45;98526.72;;;7.15;100.00
7376;BME280;3728;42.266;24.944;2023-01-27T14:27:32;98535.06;;;7.34;100.00
7376;BME280;3728;42.266;24.944;2023-01-27T14:30:35;98529.41;;;7.32;100.00
7376;BME280;3728;42.266;24.944;2023-01-27T14:36:20;98530.50;;;7.09;100.00
7376;BME280;3728;42.266;24.944;2023-01-27T14:39:20;98529.13;;;7.03;100.00
7376;BME280;3728;42.266;24.944;2023-01-27T14:45:27;98539.56;;;6.81;100.00
7376;BME280;3728;42.266;24.944;2023-01-27T14:50:58;98542.16;;;6.81;100.00
7376;BME280;3728;42.266;24.944;2023-01-27T15:04:57;98526.91;;;6.88;100.00
7376;BME280;3728;42.266;24.944;2023-01-27T15:07:46;98535.59;;;6.83;100.00
7376;BME280;3728;42.266;24.944;2023-01-27T15:10:40;98544.56;;;6.69;100.00
7376;BME280;3728;42.266;24.944;2023-01-27T15:17:30;98538.75;;;6.72;100.00
7376;BME280;3728;42.266;24.944;2023-01-27T15:23:26;98540.78;;;6.75;100.00
7376;BME280;3728;42.266;24.944;2023-01-27T15:26:04;98547.53;;;6.54;100.00
7376;BME280;3728;42.266;24.944;2023-01-27T15:28:38;98546.09;;;6.70;100.00
7376;BME280;3728;42.266;24.944;2023-01-27T15:31:13;98544.50;;;6.82;100.00
7376;BME280;3728;42.266;24.944;2023-01-27T15:34:14;98551.34;;;6.78;100.00
7376;BME280;3728;42.266;24.944;2023-01-27T15:37:11;98551.25;;;6.39;100.00
7376;BME280;3728;42.266;24.944;2023-01-27T15:45:36;98544.81;;;6.37;100.00
7376;BME280;3728;42.266;24.944;2023-01-27T15:48:19;98544.69;;;6.42;100.00
7376;BME280;3728;42.266;24.944;2023-01-27T15:50:54;98538.84;;;6.36;100.00
7376;BME280;3728;42.266;24.944;2023-01-27T15:53:47;98546.84;;;6.40;100.00
7376;BME280;3728;42.266;24.944;2023-01-27T15:56:18;98542.44;;;6.49;100.00
7376;BME280;3728;42.266;24.944;2023-01-27T15:58:57;98551.25;;;6.61;100.00
7376;BME280;3728;42.266;24.944;2023-01-27T16:01:33;98554.94;;;6.69;100.00
7376;BME280;3728;42.266;24.944;2023-01-27T16:04:17;98560.44;;;6.59;100.00
7376;BME280;3728;42.266;24.944;2023-01-27T16:06:57;98568.69;;;6.39;100.00
7376;BME280;3728;42.266;24.944;2023-01-27T16:09:41;98570.28;;;6.26;100.00
7376;BME280;3728;42.266;24.944;2023-01-27T16:21:00;98565.00;;;6.62;100.00